Time;durP1;ratioP1;P1;durP2;ratioP2;P2;SDS_P1;SDS_P2;PMS_P1;PMS_P2;Temp;Humidity;BMP_temperature;BMP_pressure;BME280_temperature;BME280_humidity;BME280_pressure;Samples;Min_cycle;Max_cycle;Signal;HPM_P1;HPM_P2
2021/03/16 00:02:17;;;;;;;97.93;52.43;;;-0.90;99.90;;;;;;4961072;29;20202;-82
2021/03/16 00:04:46;;;;;;;100.50;53.20;;;-0.80;99.90;;;;;;4951403;29;20232;-83
2021/03/16 00:07:15;;;;;;;105.70;56.37;;;-0.80;99.90;;;;;;4953443;29;20620;-81
2021/03/16 00:09:44;;;;;;;111.73;57.37;;;-0.90;99.90;;;;;;4962707;29;20212;-84
2021/03/16 00:12:13;;;;;;;104.30;56.20;;;-1.00;99.90;;;;;;4960133;28;20225;-84
2021/03/16 00:14:41;;;;;;;111.33;56.33;;;-1.00;99.90;;;;;;4950200;29;20217;-82
2021/03/16 00:17:10;;;;;;;111.13;54.77;;;-1.00;99.90;;;;;;4952029;29;20202;-85
2021/03/16 00:19:38;;;;;;;99.30;50.30;;;-0.90;99.90;;;;;;4957749;28;20492;-83
2021/03/16 00:22:08;;;;;;;103.87;55.50;;;-0.90;99.90;;;;;;4956791;29;20603;-84
2021/03/16 00:24:36;;;;;;;100.60;53.60;;;-0.60;99.90;;;;;;4948782;28;20223;-84
2021/03/16 00:27:05;;;;;;;99.53;53.27;;;-0.60;99.90;;;;;;4949715;29;20210;-83
2021/03/16 00:29:33;;;;;;;105.17;52.87;;;-0.70;99.90;;;;;;4966171;28;20255;-84
2021/03/16 00:32:02;;;;;;;102.47;54.60;;;-0.70;99.90;;;;;;4960524;29;20705;-82
2021/03/16 00:34:31;;;;;;;97.33;52.27;;;-0.70;99.90;;;;;;4964908;28;20199;-82
2021/03/16 00:37:00;;;;;;;128.57;72.50;;;-0.80;99.90;;;;;;4947454;28;20571;-83
2021/03/16 00:39:29;;;;;;;125.47;64.33;;;-0.60;99.90;;;;;;4948386;29;20269;-83
2021/03/16 00:41:57;;;;;;;128.47;66.47;;;-0.30;99.90;;;;;;4947728;29;20203;-83
2021/03/16 00:44:25;;;;;;;157.13;88.50;;;-0.10;99.90;;;;;;4951571;28;20205;-83
2021/03/16 00:46:53;;;;;;;120.17;65.57;;;-0.10;99.90;;;;;;4949137;29;20420;-82
2021/03/16 00:49:22;;;;;;;141.73;73.13;;;-0.20;99.90;;;;;;4954094;29;20583;-83
2021/03/16 00:51:52;;;;;;;133.90;74.23;;;-0.30;99.90;;;;;;4958814;28;20452;-85
2021/03/16 00:54:20;;;;;;;124.43;72.80;;;-0.30;99.90;;;;;;4965337;29;20202;-82
2021/03/16 00:56:48;;;;;;;123.10;63.43;;;-0.30;99.90;;;;;;4964631;28;20203;-83
2021/03/16 00:59:17;;;;;;;134.63;71.67;;;-0.40;99.90;;;;;;4948924;29;20660;-83
2021/03/16 01:01:45;;;;;;;145.70;77.33;;;-0.50;99.90;;;;;;4955850;28;20215;-82
2021/03/16 01:04:14;;;;;;;125.87;69.23;;;-0.40;99.90;;;;;;4952121;28;20302;-83
2021/03/16 01:06:45;;;;;;;140.57;77.90;;;-0.50;99.90;;;;;;4947831;29;20204;-82
2021/03/16 01:09:13;;;;;;;137.33;78.23;;;-0.60;99.90;;;;;;4948223;29;20289;-83
2021/03/16 01:11:41;;;;;;;156.93;82.40;;;-0.60;99.90;;;;;;4952950;28;20244;-83
2021/03/16 01:14:10;;;;;;;144.27;79.87;;;-0.50;99.90;;;;;;4943192;29;20775;-84
2021/03/16 01:16:38;;;;;;;131.73;76.30;;;-0.30;99.90;;;;;;4962705;28;20206;-83
2021/03/16 01:19:06;;;;;;;146.67;83.07;;;-0.20;99.90;;;;;;4954817;28;20213;-82
2021/03/16 01:21:35;;;;;;;142.50;75.53;;;-0.10;99.90;;;;;;4954906;28;20199;-82
2021/03/16 01:24:05;;;;;;;151.23;82.90;;;-0.10;99.90;;;;;;4948532;29;20199;-84
2021/03/16 01:26:34;;;;;;;139.67;78.57;;;-0.10;99.90;;;;;;4954240;28;20202;-82
2021/03/16 01:29:04;;;;;;;142.63;79.53;;;-0.20;99.90;;;;;;4951628;28;20229;-83
2021/03/16 01:31:32;;;;;;;129.60;77.20;;;-0.20;99.90;;;;;;4955992;29;20273;-84
2021/03/16 01:34:00;;;;;;;134.83;75.70;;;-0.30;99.90;;;;;;4955525;28;20199;-84
2021/03/16 01:36:28;;;;;;;142.33;75.17;;;-0.50;99.90;;;;;;4949102;29;20211;-83
2021/03/16 01:38:57;;;;;;;131.07;71.23;;;-0.70;99.90;;;;;;4951871;29;20210;-81
2021/03/16 01:41:46;;;;;;;145.67;79.10;;;-0.40;99.90;;;;;;4951745;29;20674;-83
2021/03/16 01:44:14;;;;;;;137.83;76.63;;;-0.20;99.90;;;;;;4950827;28;20524;-84
2021/03/16 01:47:04;;;;;;;133.37;72.73;;;-0.10;99.90;;;;;;4947754;28;20985;-83
2021/03/16 01:49:32;;;;;;;130.57;71.97;;;0.00;99.90;;;;;;4926975;29;20219;-83
2021/03/16 01:52:02;;;;;;;137.50;75.13;;;0.00;99.90;;;;;;4910978;29;20239;-83
2021/03/16 01:54:30;;;;;;;136.33;72.17;;;-0.10;99.90;;;;;;4926487;29;20231;-82
2021/03/16 01:57:02;;;;;;;134.67;72.20;;;-0.30;99.90;;;;;;4944178;29;20240;-85
2021/03/16 01:59:32;;;;;;;139.50;77.80;;;-0.30;99.90;;;;;;4938613;28;20249;-83
2021/03/16 02:02:00;;;;;;;137.03;74.87;;;-0.30;99.90;;;;;;5030172;23;20238;-83
2021/03/16 02:04:28;;;;;;;121.83;67.70;;;-0.60;99.90;;;;;;4955459;28;20203;-84
2021/03/16 02:07:08;;;;;;;174.33;99.17;;;-0.60;99.90;;;;;;4951680;29;20222;-83
2021/03/16 02:09:42;;;;;;;139.80;78.03;;;-0.70;99.90;;;;;;4946442;28;20230;-81
2021/03/16 02:12:16;;;;;;;143.20;76.80;;;-0.90;99.90;;;;;;4924438;29;20233;-82
2021/03/16 02:14:46;;;;;;;131.13;72.93;;;-1.00;99.90;;;;;;4942933;28;20267;-84
2021/03/16 02:17:21;;;;;;;144.23;78.50;;;-1.20;99.90;;;;;;4936050;28;20265;-83
2021/03/16 02:20:22;;;;;;;176.03;102.13;;;-1.10;99.90;;;;;;4950099;28;20209;-82
2021/03/16 02:22:52;;;;;;;154.07;93.17;;;-1.10;99.90;;;;;;4938840;28;20512;-84
2021/03/16 02:25:37;;;;;;;134.60;80.67;;;-1.30;99.90;;;;;;4933019;29;20233;-83
2021/03/16 02:28:23;;;;;;;138.30;78.20;;;-1.30;99.90;;;;;;4942575;28;20683;-81
2021/03/16 02:30:54;;;;;;;148.70;82.17;;;-1.30;99.90;;;;;;4946868;28;20206;-82
2021/03/16 02:33:24;;;;;;;136.07;77.13;;;-1.30;99.90;;;;;;4953054;28;20282;-83
2021/03/16 02:35:54;;;;;;;135.90;75.80;;;-1.30;99.90;;;;;;4957860;28;20189;-83
2021/03/16 02:38:26;;;;;;;144.10;74.87;;;-1.10;99.90;;;;;;4948900;28;20198;-83
2021/03/16 02:40:58;;;;;;;131.53;75.33;;;-1.30;99.90;;;;;;4960081;28;20194;-83
2021/03/16 02:43:29;;;;;;;130.80;75.63;;;-1.30;99.90;;;;;;4940297;28;20201;-84
2021/03/16 02:45:59;;;;;;;137.70;75.77;;;-1.30;99.90;;;;;;4957530;28;20237;-82
2021/03/16 02:48:29;;;;;;;140.17;75.73;;;-1.30;99.90;;;;;;4930844;29;20226;-83
2021/03/16 02:50:59;;;;;;;135.83;71.07;;;-1.20;99.90;;;;;;4942095;28;20194;-83
2021/03/16 02:53:28;;;;;;;131.17;72.50;;;-1.20;99.90;;;;;;4938307;28;20587;-81
2021/03/16 02:55:56;;;;;;;137.17;72.97;;;-1.30;99.90;;;;;;4945662;28;20233;-84
2021/03/16 02:58:27;;;;;;;131.83;70.70;;;-1.40;99.90;;;;;;4944504;28;20237;-84
2021/03/16 03:00:55;;;;;;;130.07;73.30;;;-1.50;99.90;;;;;;4931192;29;20248;-83
2021/03/16 03:03:25;;;;;;;139.43;75.40;;;-1.50;99.90;;;;;;4956306;29;20198;-82
2021/03/16 03:05:54;;;;;;;137.57;72.10;;;-1.50;99.90;;;;;;4952537;28;20499;-83
2021/03/16 03:08:24;;;;;;;132.40;71.23;;;-1.50;99.90;;;;;;4950039;28;20197;-84
2021/03/16 03:10:52;;;;;;;126.80;69.10;;;-1.50;99.90;;;;;;4936202;28;20265;-84
2021/03/16 03:13:20;;;;;;;129.77;72.40;;;-1.50;99.90;;;;;;4954510;28;20221;-81
2021/03/16 03:15:48;;;;;;;124.80;71.00;;;-1.40;99.90;;;;;;4953279;28;20198;-83
2021/03/16 03:18:16;;;;;;;125.50;69.93;;;-1.30;99.90;;;;;;4950177;28;20286;-84
2021/03/16 03:20:45;;;;;;;120.03;68.63;;;-1.30;99.90;;;;;;4952746;28;20198;-83
2021/03/16 03:23:19;;;;;;;138.57;70.40;;;-1.20;99.90;;;;;;4961204;28;20204;-83
2021/03/16 03:25:55;;;;;;;128.80;70.33;;;-1.20;99.90;;;;;;4934418;28;20437;-82
2021/03/16 03:28:25;;;;;;;125.37;70.83;;;-1.20;99.90;;;;;;4957305;28;20197;-83
2021/03/16 03:30:56;;;;;;;139.13;72.47;;;-1.30;99.90;;;;;;4934153;29;20400;-82
2021/03/16 03:33:26;;;;;;;138.50;72.67;;;-1.40;99.90;;;;;;4943854;28;20237;-81
2021/03/16 03:35:56;;;;;;;135.03;72.37;;;-1.40;99.90;;;;;;4936981;29;20914;-81
2021/03/16 03:38:26;;;;;;;128.13;68.83;;;-1.50;99.90;;;;;;4941731;29;20678;-86
2021/03/16 03:40:56;;;;;;;124.93;67.23;;;-1.50;99.90;;;;;;4940520;29;20205;-83
2021/03/16 03:43:25;;;;;;;133.30;68.63;;;-1.40;99.90;;;;;;4942534;28;20206;-82
2021/03/16 03:45:55;;;;;;;131.43;71.53;;;-1.40;99.90;;;;;;4939129;29;20210;-82
2021/03/16 03:48:26;;;;;;;130.90;68.20;;;-1.40;99.90;;;;;;4940162;29;20225;-81
2021/03/16 03:50:57;;;;;;;125.07;65.80;;;-1.40;99.90;;;;;;4939674;29;20259;-82
2021/03/16 03:53:25;;;;;;;135.70;70.20;;;-1.50;99.90;;;;;;4945873;28;20518;-82
2021/03/16 03:55:54;;;;;;;129.70;67.73;;;-1.50;99.90;;;;;;4952590;28;20466;-84
2021/03/16 03:58:25;;;;;;;124.37;67.03;;;-1.50;99.90;;;;;;4921204;29;20487;-82
2021/03/16 04:00:53;;;;;;;145.93;74.17;;;-1.60;99.90;;;;;;4931744;29;20599;-84
2021/03/16 04:03:21;;;;;;;132.63;69.90;;;-1.70;99.90;;;;;;4932635;29;20492;-82
2021/03/16 04:05:51;;;;;;;146.17;75.43;;;-1.70;99.90;;;;;;4937204;29;20205;-80
2021/03/16 04:08:22;;;;;;;140.70;71.37;;;-1.60;99.90;;;;;;4929455;29;20222;-82
2021/03/16 04:10:50;;;;;;;141.73;71.33;;;-1.40;99.90;;;;;;4932947;29;20561;-82
2021/03/16 04:13:18;;;;;;;134.60;71.33;;;-1.50;99.90;;;;;;4914538;29;20245;-83
2021/03/16 04:15:47;;;;;;;136.97;72.93;;;-1.50;99.90;;;;;;4932265;29;20204;-84
2021/03/16 04:18:15;;;;;;;149.43;74.67;;;-1.60;99.90;;;;;;4917433;29;20206;-82
2021/03/16 04:20:44;;;;;;;136.60;74.00;;;-1.70;99.90;;;;;;4949877;29;20207;-84
2021/03/16 04:23:13;;;;;;;144.53;76.63;;;-1.60;99.90;;;;;;4937789;29;20265;-83
2021/03/16 04:25:42;;;;;;;141.97;75.80;;;-1.40;99.90;;;;;;4948650;28;20570;-81
2021/03/16 04:28:15;;;;;;;136.87;72.23;;;-1.50;99.90;;;;;;4954958;28;20902;-82
2021/03/16 04:30:43;;;;;;;139.07;70.00;;;-1.50;99.90;;;;;;4952741;28;20201;-83
2021/03/16 04:33:11;;;;;;;146.10;75.30;;;-1.50;99.90;;;;;;4940544;28;20827;-81
2021/03/16 04:35:39;;;;;;;128.07;71.23;;;-1.50;99.90;;;;;;4940236;29;20206;-80
2021/03/16 04:38:07;;;;;;;128.53;70.83;;;-1.40;99.90;;;;;;4936814;29;20370;-82
2021/03/16 04:40:35;;;;;;;132.53;72.10;;;-1.50;99.90;;;;;;4954476;28;20237;-81
2021/03/16 04:43:04;;;;;;;141.83;73.20;;;-1.60;99.90;;;;;;4956187;28;20275;-82
2021/03/16 04:45:32;;;;;;;137.10;73.97;;;-1.70;99.90;;;;;;4961396;28;20210;-83
2021/03/16 04:48:00;;;;;;;134.53;71.07;;;-1.80;99.90;;;;;;4944349;29;20209;-82
2021/03/16 04:50:28;;;;;;;146.40;76.60;;;-1.90;99.90;;;;;;4947583;28;20669;-82
2021/03/16 04:52:58;;;;;;;140.10;74.40;;;-1.90;99.90;;;;;;4960126;28;20205;-83
2021/03/16 04:55:26;;;;;;;137.10;71.93;;;-1.90;99.90;;;;;;4958545;28;20205;-80
2021/03/16 04:57:54;;;;;;;145.10;73.97;;;-1.90;99.90;;;;;;4952888;28;20261;-82
2021/03/16 05:00:24;;;;;;;139.50;73.83;;;-1.90;99.90;;;;;;4944653;28;20205;-82
2021/03/16 05:02:52;;;;;;;140.93;73.83;;;-1.80;99.90;;;;;;4942194;29;20208;-83
2021/03/16 05:05:20;;;;;;;135.67;73.40;;;-1.70;99.90;;;;;;4950413;28;20206;-82
2021/03/16 05:07:52;;;;;;;135.70;72.80;;;-1.70;99.90;;;;;;4957107;28;20183;-82
2021/03/16 05:10:19;;;;;;;141.13;73.00;;;-1.70;99.90;;;;;;4958575;28;20190;-83
2021/03/16 05:12:47;;;;;;;131.63;74.03;;;-1.70;99.90;;;;;;4956815;28;20216;-82
2021/03/16 05:15:16;;;;;;;150.57;77.20;;;-1.60;99.90;;;;;;5012331;23;20229;-83
2021/03/16 05:20:34;;;;;;;156.00;76.43;;;-1.20;99.90;;;;;;5408136;23;20233;-83
2021/03/16 05:23:02;;;;;;;158.53;78.27;;;-1.10;99.90;;;;;;4958191;29;20206;-84
2021/03/16 05:25:30;;;;;;;156.23;74.80;;;-0.80;99.90;;;;;;4952672;29;20227;-83
2021/03/16 05:27:58;;;;;;;163.20;70.67;;;-0.50;99.90;;;;;;4950046;29;20200;-82
2021/03/16 05:30:27;;;;;;;153.47;82.53;;;-0.20;99.90;;;;;;4953855;28;20217;-82
2021/03/16 05:32:59;;;;;;;159.83;80.33;;;0.20;99.90;;;;;;4955705;28;20224;-81
2021/03/16 05:35:28;;;;;;;151.93;79.63;;;0.10;99.90;;;;;;4959418;28;20205;-82
2021/03/16 05:37:58;;;;;;;146.13;76.63;;;0.00;99.90;;;;;;4960614;28;20205;-83
2021/03/16 05:40:28;;;;;;;153.07;78.03;;;0.10;99.90;;;;;;4957233;28;20290;-82
2021/03/16 05:42:57;;;;;;;151.83;79.60;;;0.20;99.90;;;;;;4952023;28;20224;-82
2021/03/16 05:45:25;;;;;;;155.53;78.17;;;0.40;99.90;;;;;;4938453;28;20229;-82
2021/03/16 05:47:54;;;;;;;154.97;74.33;;;0.50;99.90;;;;;;4945218;28;20210;-82
2021/03/16 05:50:23;;;;;;;161.63;80.27;;;0.70;99.90;;;;;;4941911;29;20206;-82
2021/03/16 05:52:54;;;;;;;174.57;89.30;;;0.90;99.90;;;;;;4934101;29;20233;-81
2021/03/16 05:55:27;;;;;;;157.50;80.60;;;1.10;99.90;;;;;;4951437;29;20223;-81
2021/03/16 05:57:57;;;;;;;155.13;79.90;;;1.10;99.90;;;;;;4960377;28;20206;-81
2021/03/16 06:00:33;;;;;;;150.57;77.93;;;1.20;99.90;;;;;;4953680;28;20204;-83
2021/03/16 06:03:02;;;;;;;143.73;73.37;;;1.30;99.90;;;;;;4960528;28;20519;-82
2021/03/16 06:05:31;;;;;;;134.77;68.57;;;1.40;99.90;;;;;;4955651;28;20214;-82
2021/03/16 06:08:06;;;;;;;134.27;68.40;;;1.50;99.90;;;;;;4948729;28;20510;-82
2021/03/16 06:10:35;;;;;;;135.27;66.80;;;1.60;99.90;;;;;;4952089;28;20193;-81
2021/03/16 06:13:03;;;;;;;139.17;74.37;;;1.70;99.90;;;;;;5018197;23;20598;-84
2021/03/16 06:15:33;;;;;;;139.53;74.37;;;1.70;99.90;;;;;;4976493;28;20201;-79
2021/03/16 06:18:00;;;;;;;144.20;75.67;;;1.80;99.90;;;;;;4979587;28;20200;-82
2021/03/16 06:20:29;;;;;;;142.70;77.50;;;1.80;99.90;;;;;;4969101;28;20232;-84
2021/03/16 06:23:05;;;;;;;141.70;74.47;;;1.80;99.90;;;;;;4977586;28;20196;-81
2021/03/16 06:25:36;;;;;;;142.60;74.37;;;1.80;99.90;;;;;;4971829;28;20205;-83
2021/03/16 06:28:06;;;;;;;132.83;73.40;;;1.90;99.90;;;;;;4960087;28;20224;-81
2021/03/16 06:30:33;;;;;;;128.07;67.97;;;1.90;99.90;;;;;;4954501;28;20265;-83
2021/03/16 06:33:02;;;;;;;127.27;68.77;;;2.00;99.90;;;;;;4959568;28;20287;-82
2021/03/16 06:35:31;;;;;;;127.93;71.07;;;2.00;99.90;;;;;;4957225;28;20202;-82
2021/03/16 06:38:06;;;;;;;130.67;71.03;;;2.00;99.90;;;;;;4971845;28;20377;-81
2021/03/16 06:40:36;;;;;;;129.23;65.23;;;2.10;99.90;;;;;;4967662;28;20200;-84
2021/03/16 06:43:08;;;;;;;114.17;62.43;;;2.20;99.90;;;;;;4955910;28;20233;-83
2021/03/16 06:45:39;;;;;;;130.83;66.50;;;2.30;99.90;;;;;;4963514;28;20202;-84
2021/03/16 06:48:17;;;;;;;115.83;61.37;;;2.40;99.90;;;;;;4962915;28;20192;-83
2021/03/16 06:50:48;;;;;;;118.17;60.27;;;2.40;99.90;;;;;;4955595;28;20660;-83
2021/03/16 06:53:28;;;;;;;116.33;60.47;;;2.60;99.90;;;;;;4954535;28;20221;-84
2021/03/16 06:56:08;;;;;;;114.43;58.83;;;2.70;99.90;;;;;;4957612;28;20202;-83
2021/03/16 06:58:37;;;;;;;108.23;58.50;;;2.80;99.90;;;;;;4951480;28;20284;-83
2021/03/16 07:01:07;;;;;;;106.97;58.83;;;3.00;99.90;;;;;;4955507;28;20203;-83
2021/03/16 07:03:36;;;;;;;114.53;57.27;;;3.20;99.90;;;;;;4946360;28;20194;-83
2021/03/16 07:06:13;;;;;;;106.30;57.23;;;3.40;99.90;;;;;;4957407;28;20208;-85
2021/03/16 07:08:42;;;;;;;104.07;56.73;;;3.50;99.90;;;;;;4945866;28;20214;-84
2021/03/16 07:11:12;;;;;;;102.50;54.93;;;3.60;99.90;;;;;;4952251;28;20211;-83
2021/03/16 07:13:42;;;;;;;90.90;48.73;;;3.70;99.90;;;;;;4954994;28;20234;-83
2021/03/16 07:16:14;;;;;;;87.50;48.97;;;3.90;99.90;;;;;;4971857;28;20205;-85
2021/03/16 07:18:43;;;;;;;90.73;49.40;;;3.90;99.90;;;;;;4957288;28;20247;-84
2021/03/16 07:21:17;;;;;;;91.50;50.37;;;4.20;99.90;;;;;;4968144;28;20191;-85
2021/03/16 07:23:51;;;;;;;82.57;47.27;;;4.40;99.90;;;;;;4967982;28;20193;-84
2021/03/16 07:26:25;;;;;;;70.57;41.63;;;4.50;99.90;;;;;;4954293;28;20543;-85
2021/03/16 07:28:53;;;;;;;79.77;45.20;;;4.50;97.60;;;;;;4951103;28;20209;-84
2021/03/16 07:31:23;;;;;;;71.93;42.20;;;4.60;98.80;;;;;;4950835;28;20222;-82
2021/03/16 07:33:56;;;;;;;76.73;43.43;;;4.70;96.00;;;;;;4941880;28;20259;-82
2021/03/16 07:36:25;;;;;;;77.20;43.40;;;4.70;96.90;;;;;;4944407;28;20698;-83
2021/03/16 07:39:01;;;;;;;72.10;39.70;;;4.90;97.40;;;;;;4939547;28;20212;-84
2021/03/16 07:41:31;;;;;;;65.60;37.67;;;4.90;95.30;;;;;;4944150;28;20270;-81
2021/03/16 07:44:04;;;;;;;57.63;32.70;;;4.90;95.30;;;;;;4949626;28;20498;-84
2021/03/16 07:46:43;;;;;;;60.70;34.13;;;5.00;94.20;;;;;;4963486;28;20470;-84
2021/03/16 07:49:13;;;;;;;63.20;36.30;;;5.10;94.00;;;;;;4956789;28;20287;-82
2021/03/16 07:51:44;;;;;;;66.90;38.63;;;5.00;93.90;;;;;;4953802;28;20215;-84
2021/03/16 07:54:14;;;;;;;64.00;36.63;;;5.10;94.00;;;;;;4954883;28;20224;-84
2021/03/16 07:56:58;;;;;;;62.57;36.83;;;5.20;94.10;;;;;;4953263;28;20865;-85
2021/03/16 07:59:31;;;;;;;58.13;35.83;;;5.50;93.30;;;;;;4951444;28;20196;-84
2021/03/16 08:01:59;;;;;;;61.63;33.97;;;5.50;92.50;;;;;;4945085;28;20213;-84
2021/03/16 08:04:35;;;;;;;60.60;33.90;;;5.80;91.70;;;;;;4951034;28;20216;-82
2021/03/16 08:07:06;;;;;;;57.00;34.63;;;5.80;91.50;;;;;;4952930;28;20919;-83
2021/03/16 08:09:44;;;;;;;56.37;32.40;;;5.80;91.30;;;;;;4958960;28;20540;-84
2021/03/16 08:12:29;;;;;;;58.33;34.37;;;5.70;91.10;;;;;;4951049;28;20213;-84
2021/03/16 08:15:10;;;;;;;58.33;34.00;;;5.90;91.70;;;;;;4940147;28;20232;-79
2021/03/16 08:17:38;;;;;;;56.03;35.67;;;6.10;91.10;;;;;;4938594;28;20207;-79
2021/03/16 08:20:07;;;;;;;60.13;35.83;;;6.30;90.60;;;;;;4945282;28;20202;-79
2021/03/16 08:22:34;;;;;;;58.60;35.70;;;6.30;90.50;;;;;;4940713;28;20201;-80
2021/03/16 08:25:04;;;;;;;56.17;33.40;;;6.40;90.50;;;;;;4936746;28;20709;-78
2021/03/16 08:27:34;;;;;;;58.70;35.47;;;6.50;90.10;;;;;;4935432;28;20446;-78
2021/03/16 08:30:06;;;;;;;53.73;32.90;;;6.50;90.10;;;;;;4933667;28;20452;-78
2021/03/16 08:32:34;;;;;;;49.43;31.50;;;6.50;90.00;;;;;;4941665;28;20208;-80
2021/03/16 08:35:03;;;;;;;54.27;30.60;;;6.60;89.30;;;;;;4938486;28;20238;-77
2021/03/16 08:37:32;;;;;;;50.90;31.83;;;6.50;89.20;;;;;;4939353;28;20215;-77
2021/03/16 08:40:21;;;;;;;54.27;31.40;;;6.40;89.90;;;;;;4933506;28;20201;-79
2021/03/16 08:42:50;;;;;;;47.53;30.60;;;6.30;89.70;;;;;;4928784;28;20863;-79
2021/03/16 08:45:28;;;;;;;49.57;29.40;;;6.30;89.90;;;;;;4931726;28;21255;-79
2021/03/16 08:47:56;;;;;;;49.53;31.20;;;6.30;90.10;;;;;;4934392;28;20771;-77
2021/03/16 08:50:25;;;;;;;50.13;28.80;;;6.40;90.30;;;;;;4929718;28;20755;-78
2021/03/16 08:52:53;;;;;;;47.00;29.47;;;6.40;89.90;;;;;;4928191;28;20233;-78
2021/03/16 08:55:25;;;;;;;54.60;30.07;;;6.40;89.90;;;;;;4930865;28;20458;-78
2021/03/16 08:57:55;;;;;;;48.10;30.77;;;6.60;89.70;;;;;;4927195;28;20225;-79
2021/03/16 09:00:27;;;;;;;39.97;21.20;;;6.70;89.50;;;;;;4921522;28;20965;-78
2021/03/16 09:02:55;;;;;;;53.40;31.57;;;6.70;88.90;;;;;;4931828;28;20214;-76
2021/03/16 09:05:26;;;;;;;51.93;30.80;;;6.80;89.30;;;;;;4935992;28;20211;-80
2021/03/16 09:07:59;;;;;;;52.17;29.87;;;6.80;89.10;;;;;;4894281;28;21053;-81
2021/03/16 09:10:29;;;;;;;52.37;32.17;;;6.60;89.20;;;;;;4931554;28;20363;-81
2021/03/16 09:12:58;;;;;;;51.97;32.10;;;6.50;89.80;;;;;;4951313;28;20586;-77
2021/03/16 09:15:28;;;;;;;49.67;28.30;;;6.50;90.00;;;;;;4933789;28;20209;-78
2021/03/16 09:18:04;;;;;;;51.00;30.17;;;6.60;89.50;;;;;;4893189;28;20238;-79
2021/03/16 09:20:34;;;;;;;48.17;30.73;;;6.60;89.70;;;;;;4911627;28;20902;-78
2021/03/16 09:23:05;;;;;;;56.10;30.73;;;6.70;89.80;;;;;;4931027;28;20219;-80
2021/03/16 09:25:34;;;;;;;49.40;30.87;;;6.80;88.80;;;;;;4941329;28;20332;-79
2021/03/16 09:28:06;;;;;;;47.67;29.73;;;6.80;88.60;;;;;;4953623;28;20411;-78
2021/03/16 09:30:37;;;;;;;52.47;29.80;;;6.80;88.90;;;;;;4955868;28;20269;-80
2021/03/16 09:33:06;;;;;;;51.00;29.37;;;6.90;88.70;;;;;;4947472;28;20413;-79
2021/03/16 09:35:35;;;;;;;45.93;29.53;;;6.90;88.20;;;;;;4953471;28;20206;-79
2021/03/16 09:38:05;;;;;;;48.77;29.50;;;7.00;88.30;;;;;;4959956;28;20197;-81
2021/03/16 09:40:37;;;;;;;41.33;27.23;;;7.00;88.80;;;;;;4967042;28;20270;-79
2021/03/16 09:43:17;;;;;;;41.20;25.37;;;7.10;87.90;;;;;;4964742;28;20229;-79
2021/03/16 09:45:52;;;;;;;31.17;18.97;;;7.20;87.50;;;;;;4962262;28;20215;-77
2021/03/16 09:48:21;;;;;;;38.10;24.83;;;7.20;84.90;;;;;;4958544;28;20226;-80
2021/03/16 09:50:54;;;;;;;36.47;23.20;;;7.30;85.40;;;;;;4964032;28;20201;-80
2021/03/16 09:53:23;;;;;;;38.27;23.83;;;7.40;85.50;;;;;;4959374;28;20285;-79
2021/03/16 09:55:57;;;;;;;25.13;15.83;;;7.50;84.80;;;;;;4953450;28;20304;-80
2021/03/16 09:58:28;;;;;;;39.80;23.73;;;7.50;85.30;;;;;;4948870;28;20207;-77
2021/03/16 10:01:04;;;;;;;38.63;23.00;;;7.50;84.50;;;;;;4953534;28;20204;-81
2021/03/16 10:03:33;;;;;;;40.23;23.17;;;7.70;84.40;;;;;;4953191;28;20337;-77
2021/03/16 10:06:05;;;;;;;33.80;22.10;;;7.80;84.40;;;;;;4951371;28;20287;-77
2021/03/16 10:08:33;;;;;;;34.57;23.57;;;8.00;84.50;;;;;;4956901;28;20990;-81
2021/03/16 10:11:01;;;;;;;30.73;20.47;;;8.00;84.00;;;;;;4950026;28;20216;-76
2021/03/16 10:13:35;;;;;;;35.10;22.23;;;8.10;83.80;;;;;;4951203;28;20225;-79
2021/03/16 10:16:08;;;;;;;28.20;19.33;;;8.20;83.50;;;;;;4945695;28;20822;-79
2021/03/16 10:18:38;;;;;;;33.13;19.23;;;8.30;83.40;;;;;;4939064;28;20209;-78
2021/03/16 10:21:06;;;;;;;25.13;16.33;;;8.30;82.70;;;;;;4947817;28;20220;-79
2021/03/16 10:23:34;;;;;;;28.50;18.80;;;8.40;81.70;;;;;;4947186;28;20204;-79
2021/03/16 10:26:04;;;;;;;28.50;18.57;;;8.30;81.80;;;;;;4950653;28;20197;-80
2021/03/16 10:28:34;;;;;;;21.20;14.27;;;8.50;81.80;;;;;;4948968;28;20446;-83
2021/03/16 10:31:13;;;;;;;30.20;18.53;;;8.60;81.50;;;;;;4949021;28;20244;-79
2021/03/16 10:33:41;;;;;;;26.40;17.90;;;8.60;81.50;;;;;;4953895;28;20240;-81
2021/03/16 10:36:10;;;;;;;29.33;18.47;;;8.70;81.50;;;;;;4942690;28;20211;-79
2021/03/16 10:38:38;;;;;;;26.07;14.00;;;8.80;81.30;;;;;;4951401;28;20216;-79
2021/03/16 10:41:05;;;;;;;26.43;16.13;;;9.00;80.90;;;;;;4943913;28;20202;-80
2021/03/16 10:43:34;;;;;;;23.73;16.90;;;9.00;80.50;;;;;;4931424;28;20591;-77
2021/03/16 10:46:01;;;;;;;25.33;16.73;;;9.10;79.80;;;;;;4929791;28;20646;-80
2021/03/16 10:48:34;;;;;;;24.87;15.17;;;9.30;79.60;;;;;;4930282;28;20306;-79
2021/03/16 10:51:02;;;;;;;22.33;15.73;;;9.60;78.70;;;;;;4929541;28;20839;-81
2021/03/16 10:53:30;;;;;;;22.13;14.57;;;9.80;78.60;;;;;;4927565;28;20826;-78
2021/03/16 10:56:01;;;;;;;22.50;15.20;;;10.20;78.00;;;;;;4927642;28;20452;-82
2021/03/16 10:58:29;;;;;;;27.40;17.30;;;10.30;77.30;;;;;;4941456;28;21123;-80
2021/03/16 11:00:58;;;;;;;25.10;16.17;;;10.30;77.70;;;;;;4925634;28;20338;-80
2021/03/16 11:03:31;;;;;;;23.23;16.07;;;10.30;77.40;;;;;;4923151;28;20914;-79
2021/03/16 11:05:59;;;;;;;26.10;16.43;;;10.20;77.60;;;;;;4930386;28;20947;-80
2021/03/16 11:08:28;;;;;;;24.30;16.27;;;9.90;78.00;;;;;;4924229;28;20757;-79
2021/03/16 11:10:56;;;;;;;26.43;16.40;;;9.70;78.00;;;;;;4927473;28;20686;-76
2021/03/16 11:13:25;;;;;;;26.03;17.13;;;9.60;78.40;;;;;;4923643;28;20322;-78
2021/03/16 11:15:53;;;;;;;24.93;17.37;;;9.60;78.80;;;;;;4933023;28;20205;-79
2021/03/16 11:18:21;;;;;;;26.70;17.47;;;9.50;78.90;;;;;;4929046;28;20213;-80
2021/03/16 11:20:49;;;;;;;26.93;17.53;;;9.60;79.10;;;;;;4933335;28;20211;-79
2021/03/16 11:23:17;;;;;;;23.63;16.63;;;9.50;79.20;;;;;;4928426;28;20242;-79
2021/03/16 11:25:45;;;;;;;25.63;17.13;;;9.60;78.80;;;;;;4926612;28;20224;-79
2021/03/16 11:28:13;;;;;;;23.07;17.03;;;9.60;78.50;;;;;;4927735;28;20704;-79
2021/03/16 11:30:41;;;;;;;21.37;16.30;;;9.60;78.80;;;;;;4930885;28;20352;-79
2021/03/16 11:33:09;;;;;;;25.83;15.20;;;9.80;78.30;;;;;;4930925;28;20672;-80
2021/03/16 11:35:39;;;;;;;23.40;14.93;;;9.70;78.30;;;;;;4942624;28;20443;-79
2021/03/16 11:38:07;;;;;;;22.40;14.40;;;9.80;77.70;;;;;;4949323;28;20297;-79
2021/03/16 11:40:35;;;;;;;20.93;14.60;;;9.90;77.20;;;;;;4945492;28;20442;-79
2021/03/16 11:43:03;;;;;;;21.33;16.40;;;9.90;77.70;;;;;;4937760;28;20346;-79
2021/03/16 11:45:31;;;;;;;21.47;13.80;;;10.10;78.00;;;;;;4934832;28;20205;-79
2021/03/16 11:47:59;;;;;;;24.70;15.63;;;10.10;77.20;;;;;;4933865;28;20513;-78
2021/03/16 11:50:27;;;;;;;26.33;16.90;;;10.10;77.90;;;;;;4938389;28;20197;-79
2021/03/16 11:52:55;;;;;;;21.50;13.50;;;10.20;78.30;;;;;;4934532;28;20659;-80
2021/03/16 11:55:22;;;;;;;22.83;14.30;;;10.00;78.10;;;;;;4936629;28;20563;-80
2021/03/16 11:57:50;;;;;;;16.83;11.67;;;9.80;77.80;;;;;;4938970;28;20741;-81
2021/03/16 12:00:18;;;;;;;12.80;10.20;;;9.60;77.40;;;;;;4946092;28;20942;-79
2021/03/16 12:02:46;;;;;;;15.17;9.73;;;9.50;76.70;;;;;;4949646;28;20200;-79
2021/03/16 12:05:14;;;;;;;12.10;8.53;;;9.40;76.00;;;;;;4948184;28;20205;-80
2021/03/16 12:07:42;;;;;;;11.87;8.80;;;9.30;76.10;;;;;;4940874;28;20397;-80
2021/03/16 12:10:11;;;;;;;9.43;7.40;;;9.30;76.20;;;;;;4944876;28;20288;-80
2021/03/16 12:12:39;;;;;;;10.20;7.60;;;9.20;75.80;;;;;;4937945;28;20203;-79
2021/03/16 12:15:08;;;;;;;9.17;6.73;;;9.20;74.70;;;;;;4944456;28;20463;-78
2021/03/16 12:17:36;;;;;;;11.67;7.33;;;9.20;75.10;;;;;;4946718;28;20213;-78
2021/03/16 12:20:06;;;;;;;8.87;6.90;;;9.00;75.00;;;;;;4950432;28;20201;-79
2021/03/16 12:22:33;;;;;;;9.73;6.90;;;8.90;74.50;;;;;;4942024;28;20204;-80
2021/03/16 12:25:01;;;;;;;9.27;6.93;;;8.90;74.50;;;;;;4942563;28;20460;-79
2021/03/16 12:27:29;;;;;;;8.63;5.77;;;9.00;74.30;;;;;;4943315;28;20255;-80
2021/03/16 12:29:57;;;;;;;9.90;6.70;;;9.20;74.30;;;;;;4942646;28;20287;-79
2021/03/16 12:32:25;;;;;;;8.10;6.40;;;9.40;74.80;;;;;;4932222;28;20540;-79
2021/03/16 12:34:56;;;;;;;7.13;5.77;;;9.30;73.90;;;;;;4942625;28;20410;-81
2021/03/16 12:37:24;;;;;;;7.90;5.93;;;9.20;73.20;;;;;;4935856;28;20297;-80
2021/03/16 12:39:52;;;;;;;10.97;8.27;;;9.20;73.00;;;;;;4939665;28;20203;-79
2021/03/16 12:42:19;;;;;;;12.70;8.13;;;9.50;73.10;;;;;;4932166;28;20239;-77
2021/03/16 12:44:47;;;;;;;10.07;7.30;;;9.60;73.90;;;;;;4939610;28;20212;-80
2021/03/16 12:47:15;;;;;;;11.33;8.20;;;9.70;73.50;;;;;;4935686;28;20439;-78